sensor_id;sensor_type;location;lat;lon;timestamp;temperature;humidity
27314;DHT22;14800;48.174;9.798;2023-03-04T00:01:32;2.30;79.30
27314;DHT22;14800;48.174;9.798;2023-03-04T00:03:58;2.20;79.40
27314;DHT22;14800;48.174;9.798;2023-03-04T00:06:23;2.20;79.50
27314;DHT22;14800;48.174;9.798;2023-03-04T00:08:49;2.20;79.50
27314;DHT22;14800;48.174;9.798;2023-03-04T00:11:14;2.20;79.60
27314;DHT22;14800;48.174;9.798;2023-03-04T00:13:40;2.20;79.70
27314;DHT22;14800;48.174;9.798;2023-03-04T00:16:06;2.10;79.70
27314;DHT22;14800;48.174;9.798;2023-03-04T00:18:31;2.10;79.60
27314;DHT22;14800;48.174;9.798;2023-03-04T00:20:57;2.10;79.60
27314;DHT22;14800;48.174;9.798;2023-03-04T00:23:22;2.10;79.60
27314;DHT22;14800;48.174;9.798;2023-03-04T00:25:48;2.10;79.60
27314;DHT22;14800;48.174;9.798;2023-03-04T00:28:14;2.10;79.60
27314;DHT22;14800;48.174;9.798;2023-03-04T00:30:39;2.00;79.50
27314;DHT22;14800;48.174;9.798;2023-03-04T00:33:05;2.00;79.50
27314;DHT22;14800;48.174;9.798;2023-03-04T00:35:30;2.00;79.50
27314;DHT22;14800;48.174;9.798;2023-03-04T00:37:56;2.00;79.50
27314;DHT22;14800;48.174;9.798;2023-03-04T00:40:21;2.00;79.80
27314;DHT22;14800;48.174;9.798;2023-03-04T00:42:47;2.00;79.90
27314;DHT22;14800;48.174;9.798;2023-03-04T00:45:12;1.90;80.00
27314;DHT22;14800;48.174;9.798;2023-03-04T00:47:38;1.90;80.00
27314;DHT22;14800;48.174;9.798;2023-03-04T00:50:04;1.90;80.70
27314;DHT22;14800;48.174;9.798;2023-03-04T00:52:30;1.90;79.90
27314;DHT22;14800;48.174;9.798;2023-03-04T00:54:55;1.90;79.90
27314;DHT22;14800;48.174;9.798;2023-03-04T00:57:21;1.90;79.90
27314;DHT22;14800;48.174;9.798;2023-03-04T00:59:46;1.90;79.80
27314;DHT22;14800;48.174;9.798;2023-03-04T01:02:12;1.90;79.70
27314;DHT22;14800;48.174;9.798;2023-03-04T01:04:38;1.90;79.70
27314;DHT22;14800;48.174;9.798;2023-03-04T01:07:04;1.80;79.70
27314;DHT22;14800;48.174;9.798;2023-03-04T01:09:30;1.90;79.70
27314;DHT22;14800;48.174;9.798;2023-03-04T01:11:55;1.90;79.70
27314;DHT22;14800;48.174;9.798;2023-03-04T01:14:21;1.90;79.70
27314;DHT22;14800;48.174;9.798;2023-03-04T01:16:48;1.80;79.50
27314;DHT22;14800;48.174;9.798;2023-03-04T01:19:13;1.90;79.50
27314;DHT22;14800;48.174;9.798;2023-03-04T01:21:39;1.90;79.50
27314;DHT22;14800;48.174;9.798;2023-03-04T01:24:05;1.80;79.50
27314;DHT22;14800;48.174;9.798;2023-03-04T01:26:30;1.80;79.60
27314;DHT22;14800;48.174;9.798;2023-03-04T01:28:56;1.80;79.60
27314;DHT22;14800;48.174;9.798;2023-03-04T01:31:21;1.80;79.60
27314;DHT22;14800;48.174;9.798;2023-03-04T01:33:47;1.80;79.70
27314;DHT22;14800;48.174;9.798;2023-03-04T01:36:13;1.80;79.50
27314;DHT22;14800;48.174;9.798;2023-03-04T01:38:38;1.80;79.50
27314;DHT22;14800;48.174;9.798;2023-03-04T01:41:04;1.80;79.40
27314;DHT22;14800;48.174;9.798;2023-03-04T01:43:30;1.80;79.20
27314;DHT22;14800;48.174;9.798;2023-03-04T01:45:57;1.80;79.10
27314;DHT22;14800;48.174;9.798;2023-03-04T01:48:28;1.80;78.90
27314;DHT22;14800;48.174;9.798;2023-03-04T01:50:56;1.80;78.80
27314;DHT22;14800;48.174;9.798;2023-03-04T01:53:25;1.70;78.70
27314;DHT22;14800;48.174;9.798;2023-03-04T01:55:53;1.70;78.70
27314;DHT22;14800;48.174;9.798;2023-03-04T01:58:19;1.70;78.80
27314;DHT22;14800;48.174;9.798;2023-03-04T02:00:44;1.60;78.80
27314;DHT22;14800;48.174;9.798;2023-03-04T02:03:14;1.70;79.00
27314;DHT22;14800;48.174;9.798;2023-03-04T02:05:43;1.70;79.00
27314;DHT22;14800;48.174;9.798;2023-03-04T02:08:09;1.60;78.80
27314;DHT22;14800;48.174;9.798;2023-03-04T02:10:37;1.60;78.80
27314;DHT22;14800;48.174;9.798;2023-03-04T02:13:03;1.60;78.80
27314;DHT22;14800;48.174;9.798;2023-03-04T02:15:29;1.60;78.80
27314;DHT22;14800;48.174;9.798;2023-03-04T02:17:55;1.60;78.90
27314;DHT22;14800;48.174;9.798;2023-03-04T02:21:01;1.60;78.80
27314;DHT22;14800;48.174;9.798;2023-03-04T02:23:45;1.60;79.10
27314;DHT22;14800;48.174;9.798;2023-03-04T02:28:40;1.60;78.70
27314;DHT22;14800;48.174;9.798;2023-03-04T02:31:08;1.50;78.60
27314;DHT22;14800;48.174;9.798;2023-03-04T02:33:41;1.50;78.60
27314;DHT22;14800;48.174;9.798;2023-03-04T02:36:08;1.50;78.60
27314;DHT22;14800;48.174;9.798;2023-03-04T02:38:34;1.50;78.70
27314;DHT22;14800;48.174;9.798;2023-03-04T02:41:00;1.50;78.60
27314;DHT22;14800;48.174;9.798;2023-03-04T02:43:26;1.50;78.50
27314;DHT22;14800;48.174;9.798;2023-03-04T02:45:51;1.50;78.50
27314;DHT22;14800;48.174;9.798;2023-03-04T02:48:20;1.40;78.50
27314;DHT22;14800;48.174;9.798;2023-03-04T02:50:54;1.40;78.50
27314;DHT22;14800;48.174;9.798;2023-03-04T02:53:20;1.40;78.60
27314;DHT22;14800;48.174;9.798;2023-03-04T02:55:47;1.40;78.60
27314;DHT22;14800;48.174;9.798;2023-03-04T02:58:13;1.40;78.40
27314;DHT22;14800;48.174;9.798;2023-03-04T03:00:39;1.40;78.50
27314;DHT22;14800;48.174;9.798;2023-03-04T03:03:05;1.40;78.50
27314;DHT22;14800;48.174;9.798;2023-03-04T03:05:34;1.40;78.40
27314;DHT22;14800;48.174;9.798;2023-03-04T03:08:00;1.40;78.30
27314;DHT22;14800;48.174;9.798;2023-03-04T03:10:26;1.40;78.30
27314;DHT22;14800;48.174;9.798;2023-03-04T03:12:52;1.30;78.30
27314;DHT22;14800;48.174;9.798;2023-03-04T03:15:17;1.30;78.20
27314;DHT22;14800;48.174;9.798;2023-03-04T03:17:43;1.30;78.30
27314;DHT22;14800;48.174;9.798;2023-03-04T03:20:10;1.20;78.30
27314;DHT22;14800;48.174;9.798;2023-03-04T03:22:37;1.20;78.50
27314;DHT22;14800;48.174;9.798;2023-03-04T03:25:03;1.20;78.50
27314;DHT22;14800;48.174;9.798;2023-03-04T03:27:29;1.20;78.40
27314;DHT22;14800;48.174;9.798;2023-03-04T03:29:55;1.20;78.30
27314;DHT22;14800;48.174;9.798;2023-03-04T03:32:20;1.20;78.30
27314;DHT22;14800;48.174;9.798;2023-03-04T03:34:46;1.10;78.30
27314;DHT22;14800;48.174;9.798;2023-03-04T03:37:12;1.10;78.30
27314;DHT22;14800;48.174;9.798;2023-03-04T03:39:37;1.10;78.40
27314;DHT22;14800;48.174;9.798;2023-03-04T03:42:03;1.10;78.50
27314;DHT22;14800;48.174;9.798;2023-03-04T03:44:28;1.10;78.40
27314;DHT22;14800;48.174;9.798;2023-03-04T03:46:54;1.10;78.50
27314;DHT22;14800;48.174;9.798;2023-03-04T03:49:19;1.10;78.50
27314;DHT22;14800;48.174;9.798;2023-03-04T03:51:46;1.10;78.60
27314;DHT22;14800;48.174;9.798;2023-03-04T03:54:12;1.10;78.40
27314;DHT22;14800;48.174;9.798;2023-03-04T03:56:38;1.10;78.30
27314;DHT22;14800;48.174;9.798;2023-03-04T03:59:03;1.10;78.10
27314;DHT22;14800;48.174;9.798;2023-03-04T04:01:29;1.10;78.10
27314;DHT22;14800;48.174;9.798;2023-03-04T04:03:54;1.10;78.10
27314;DHT22;14800;48.174;9.798;2023-03-04T04:06:20;1.10;78.10
27314;DHT22;14800;48.174;9.798;2023-03-04T04:08:46;1.00;78.20
27314;DHT22;14800;48.174;9.798;2023-03-04T04:11:12;1.00;78.30
27314;DHT22;14800;48.174;9.798;2023-03-04T04:13:38;1.00;78.30
27314;DHT22;14800;48.174;9.798;2023-03-04T04:16:04;1.00;78.40
27314;DHT22;14800;48.174;9.798;2023-03-04T04:18:30;1.00;78.40
27314;DHT22;14800;48.174;9.798;2023-03-04T04:20:56;1.00;78.50
27314;DHT22;14800;48.174;9.798;2023-03-04T04:23:21;1.00;78.50
27314;DHT22;14800;48.174;9.798;2023-03-04T04:25:47;1.00;78.50
27314;DHT22;14800;48.174;9.798;2023-03-04T04:28:13;1.00;78.30
27314;DHT22;14800;48.174;9.798;2023-03-04T04:30:38;1.00;78.20
27314;DHT22;14800;48.174;9.798;2023-03-04T04:33:05;1.00;78.10
27314;DHT22;14800;48.174;9.798;2023-03-04T04:35:31;0.90;78.10
27314;DHT22;14800;48.174;9.798;2023-03-04T04:37:57;0.90;78.20
27314;DHT22;14800;48.174;9.798;2023-03-04T04:40:23;0.90;78.30
27314;DHT22;14800;48.174;9.798;2023-03-04T04:42:48;0.90;78.30
27314;DHT22;14800;48.174;9.798;2023-03-04T04:45:15;0.90;78.30
27314;DHT22;14800;48.174;9.798;2023-03-04T04:47:41;0.90;78.30
27314;DHT22;14800;48.174;9.798;2023-03-04T04:50:07;0.90;78.20
27314;DHT22;14800;48.174;9.798;2023-03-04T04:52:32;0.90;78.20
27314;DHT22;14800;48.174;9.798;2023-03-04T04:54:58;0.80;78.10
27314;DHT22;14800;48.174;9.798;2023-03-04T04:57:24;0.80;78.00
27314;DHT22;14800;48.174;9.798;2023-03-04T04:59:49;0.70;78.10
27314;DHT22;14800;48.174;9.798;2023-03-04T05:02:15;0.80;78.30
27314;DHT22;14800;48.174;9.798;2023-03-04T05:04:40;0.80;78.30
27314;DHT22;14800;48.174;9.798;2023-03-04T05:07:06;0.70;78.20
27314;DHT22;14800;48.174;9.798;2023-03-04T05:09:32;0.70;78.20
27314;DHT22;14800;48.174;9.798;2023-03-04T05:11:57;0.70;78.30
27314;DHT22;14800;48.174;9.798;2023-03-04T05:14:23;0.70;78.50
27314;DHT22;14800;48.174;9.798;2023-03-04T05:16:49;0.80;78.50
27314;DHT22;14800;48.174;9.798;2023-03-04T05:19:17;0.80;78.80
27314;DHT22;14800;48.174;9.798;2023-03-04T05:21:43;0.80;78.90
27314;DHT22;14800;48.174;9.798;2023-03-04T05:24:08;0.80;79.00
27314;DHT22;14800;48.174;9.798;2023-03-04T05:26:34;0.80;78.80
27314;DHT22;14800;48.174;9.798;2023-03-04T05:28:59;0.80;78.60
27314;DHT22;14800;48.174;9.798;2023-03-04T05:31:25;0.80;78.80
27314;DHT22;14800;48.174;9.798;2023-03-04T05:33:51;0.80;78.90
27314;DHT22;14800;48.174;9.798;2023-03-04T05:36:16;0.80;79.10
27314;DHT22;14800;48.174;9.798;2023-03-04T05:38:42;0.80;79.00
27314;DHT22;14800;48.174;9.798;2023-03-04T05:41:07;0.80;78.90
27314;DHT22;14800;48.174;9.798;2023-03-04T05:43:34;0.80;78.80
27314;DHT22;14800;48.174;9.798;2023-03-04T05:46:02;0.80;78.80
27314;DHT22;14800;48.174;9.798;2023-03-04T05:48:28;0.80;79.00
27314;DHT22;14800;48.174;9.798;2023-03-04T05:50:59;0.80;79.10
27314;DHT22;14800;48.174;9.798;2023-03-04T05:53:25;0.80;79.10
27314;DHT22;14800;48.174;9.798;2023-03-04T05:55:52;0.80;79.00
27314;DHT22;14800;48.174;9.798;2023-03-04T05:58:18;0.80;79.00
27314;DHT22;14800;48.174;9.798;2023-03-04T06:00:43;0.80;79.00
27314;DHT22;14800;48.174;9.798;2023-03-04T06:03:21;0.80;78.90
27314;DHT22;14800;48.174;9.798;2023-03-04T06:05:47;0.80;79.00
27314;DHT22;14800;48.174;9.798;2023-03-04T06:08:13;0.80;78.90
27314;DHT22;14800;48.174;9.798;2023-03-04T06:10:39;0.90;79.00
27314;DHT22;14800;48.174;9.798;2023-03-04T06:13:06;0.90;78.80
27314;DHT22;14800;48.174;9.798;2023-03-04T06:15:32;0.90;78.80
27314;DHT22;14800;48.174;9.798;2023-03-04T06:17:57;0.90;78.80
27314;DHT22;14800;48.174;9.798;2023-03-04T06:20:23;0.90;78.90
27314;DHT22;14800;48.174;9.798;2023-03-04T06:22:49;0.90;78.80
27314;DHT22;14800;48.174;9.798;2023-03-04T06:25:14;0.90;78.90
27314;DHT22;14800;48.174;9.798;2023-03-04T06:27:40;0.90;79.00
27314;DHT22;14800;48.174;9.798;2023-03-04T06:30:06;0.90;79.00
27314;DHT22;14800;48.174;9.798;2023-03-04T06:32:32;0.90;79.20
27314;DHT22;14800;48.174;9.798;2023-03-04T06:34:57;0.90;79.20
27314;DHT22;14800;48.174;9.798;2023-03-04T06:37:23;1.00;79.30
27314;DHT22;14800;48.174;9.798;2023-03-04T06:39:48;1.00;79.30
27314;DHT22;14800;48.174;9.798;2023-03-04T06:42:14;1.00;79.40
27314;DHT22;14800;48.174;9.798;2023-03-04T06:44:40;1.00;80.40
27314;DHT22;14800;48.174;9.798;2023-03-04T06:47:06;1.00;79.60
27314;DHT22;14800;48.174;9.798;2023-03-04T06:49:32;1.00;79.50
27314;DHT22;14800;48.174;9.798;2023-03-04T06:51:57;1.10;79.50
27314;DHT22;14800;48.174;9.798;2023-03-04T06:54:23;1.10;79.70
27314;DHT22;14800;48.174;9.798;2023-03-04T06:56:49;1.10;79.90
27314;DHT22;14800;48.174;9.798;2023-03-04T06:59:14;1.10;80.00
27314;DHT22;14800;48.174;9.798;2023-03-04T07:01:40;1.10;80.20
27314;DHT22;14800;48.174;9.798;2023-03-04T07:04:06;1.10;80.30
27314;DHT22;14800;48.174;9.798;2023-03-04T07:06:32;1.10;80.40
27314;DHT22;14800;48.174;9.798;2023-03-04T07:08:57;1.10;80.40
27314;DHT22;14800;48.174;9.798;2023-03-04T07:11:23;1.10;80.60
27314;DHT22;14800;48.174;9.798;2023-03-04T07:13:49;1.20;80.80
27314;DHT22;14800;48.174;9.798;2023-03-04T07:16:19;1.20;81.00
27314;DHT22;14800;48.174;9.798;2023-03-04T07:18:45;1.30;81.20
27314;DHT22;14800;48.174;9.798;2023-03-04T07:21:13;1.30;81.10
27314;DHT22;14800;48.174;9.798;2023-03-04T07:23:39;1.40;81.30
27314;DHT22;14800;48.174;9.798;2023-03-04T07:26:05;1.40;81.30
27314;DHT22;14800;48.174;9.798;2023-03-04T07:28:31;1.50;81.40
27314;DHT22;14800;48.174;9.798;2023-03-04T07:31:06;1.50;81.60
27314;DHT22;14800;48.174;9.798;2023-03-04T07:33:31;1.50;81.60
27314;DHT22;14800;48.174;9.798;2023-03-04T07:35:58;1.60;81.80
27314;DHT22;14800;48.174;9.798;2023-03-04T07:38:24;1.60;81.90
27314;DHT22;14800;48.174;9.798;2023-03-04T07:40:58;1.70;82.00
27314;DHT22;14800;48.174;9.798;2023-03-04T07:43:24;1.70;82.30
27314;DHT22;14800;48.174;9.798;2023-03-04T07:45:49;1.80;82.90
27314;DHT22;14800;48.174;9.798;2023-03-04T07:48:15;1.80;81.60
27314;DHT22;14800;48.174;9.798;2023-03-04T07:50:41;1.90;81.80
27314;DHT22;14800;48.174;9.798;2023-03-04T07:53:06;1.90;81.80
27314;DHT22;14800;48.174;9.798;2023-03-04T07:55:32;2.00;82.00
27314;DHT22;14800;48.174;9.798;2023-03-04T07:57:58;2.10;82.10
27314;DHT22;14800;48.174;9.798;2023-03-04T08:00:24;2.10;82.20
27314;DHT22;14800;48.174;9.798;2023-03-04T08:02:49;2.20;82.30
27314;DHT22;14800;48.174;9.798;2023-03-04T08:05:15;2.30;82.30
27314;DHT22;14800;48.174;9.798;2023-03-04T08:07:41;2.30;82.40
27314;DHT22;14800;48.174;9.798;2023-03-04T08:10:07;2.40;82.50
27314;DHT22;14800;48.174;9.798;2023-03-04T08:12:34;2.50;82.70
27314;DHT22;14800;48.174;9.798;2023-03-04T08:15:00;2.60;83.00
27314;DHT22;14800;48.174;9.798;2023-03-04T08:17:25;2.60;83.00
27314;DHT22;14800;48.174;9.798;2023-03-04T08:19:54;2.70;83.20
27314;DHT22;14800;48.174;9.798;2023-03-04T08:22:20;2.80;83.00
27314;DHT22;14800;48.174;9.798;2023-03-04T08:24:45;2.90;83.00
27314;DHT22;14800;48.174;9.798;2023-03-04T08:27:11;2.90;83.00
27314;DHT22;14800;48.174;9.798;2023-03-04T08:29:36;2.90;83.00
27314;DHT22;14800;48.174;9.798;2023-03-04T08:32:02;3.00;83.00
27314;DHT22;14800;48.174;9.798;2023-03-04T08:34:28;3.10;82.80
27314;DHT22;14800;48.174;9.798;2023-03-04T08:36:53;3.20;82.80
27314;DHT22;14800;48.174;9.798;2023-03-04T08:39:20;3.20;82.60
27314;DHT22;14800;48.174;9.798;2023-03-04T08:41:46;3.30;82.50
27314;DHT22;14800;48.174;9.798;2023-03-04T08:44:12;3.40;82.40
27314;DHT22;14800;48.174;9.798;2023-03-04T08:46:39;3.40;82.40
27314;DHT22;14800;48.174;9.798;2023-03-04T08:49:06;3.50;82.50
27314;DHT22;14800;48.174;9.798;2023-03-04T08:51:32;3.60;83.50
27314;DHT22;14800;48.174;9.798;2023-03-04T08:54:03;3.70;82.80
27314;DHT22;14800;48.174;9.798;2023-03-04T08:56:28;3.80;82.60
27314;DHT22;14800;48.174;9.798;2023-03-04T08:58:54;3.90;82.50
27314;DHT22;14800;48.174;9.798;2023-03-04T09:01:19;3.90;82.30
27314;DHT22;14800;48.174;9.798;2023-03-04T09:03:45;4.00;82.20
27314;DHT22;14800;48.174;9.798;2023-03-04T09:06:13;4.10;82.20
27314;DHT22;14800;48.174;9.798;2023-03-04T09:08:39;4.20;82.10
27314;DHT22;14800;48.174;9.798;2023-03-04T09:11:05;4.30;82.00
27314;DHT22;14800;48.174;9.798;2023-03-04T09:13:31;4.40;81.60
27314;DHT22;14800;48.174;9.798;2023-03-04T09:15:57;4.50;81.50
27314;DHT22;14800;48.174;9.798;2023-03-04T09:18:24;4.60;81.30
27314;DHT22;14800;48.174;9.798;2023-03-04T09:20:50;4.70;81.20
27314;DHT22;14800;48.174;9.798;2023-03-04T09:23:16;4.70;81.20
27314;DHT22;14800;48.174;9.798;2023-03-04T09:28:18;4.80;80.60
27314;DHT22;14800;48.174;9.798;2023-03-04T09:30:44;4.90;80.50
27314;DHT22;14800;48.174;9.798;2023-03-04T09:33:10;4.90;80.40
27314;DHT22;14800;48.174;9.798;2023-03-04T09:35:35;5.00;80.40
27314;DHT22;14800;48.174;9.798;2023-03-04T09:38:01;5.10;80.00
27314;DHT22;14800;48.174;9.798;2023-03-04T09:40:29;5.10;79.90
27314;DHT22;14800;48.174;9.798;2023-03-04T09:43:01;5.20;79.90
27314;DHT22;14800;48.174;9.798;2023-03-04T09:45:40;5.30;79.80
27314;DHT22;14800;48.174;9.798;2023-03-04T09:48:09;5.30;79.50
27314;DHT22;14800;48.174;9.798;2023-03-04T09:50:43;5.40;79.30
27314;DHT22;14800;48.174;9.798;2023-03-04T09:53:28;5.40;79.20
27314;DHT22;14800;48.174;9.798;2023-03-04T09:55:58;5.50;79.00
27314;DHT22;14800;48.174;9.798;2023-03-04T09:58:42;5.50;79.20
27314;DHT22;14800;48.174;9.798;2023-03-04T10:01:43;5.60;78.80
27314;DHT22;14800;48.174;9.798;2023-03-04T10:06:56;5.80;78.10
27314;DHT22;14800;48.174;9.798;2023-03-04T10:12:13;5.90;78.00
27314;DHT22;14800;48.174;9.798;2023-03-04T10:19:43;6.10;78.40
27314;DHT22;14800;48.174;9.798;2023-03-04T10:22:24;6.10;78.50
27314;DHT22;14800;48.174;9.798;2023-03-04T10:24:53;6.20;78.30
27314;DHT22;14800;48.174;9.798;2023-03-04T10:27:20;6.30;78.30
27314;DHT22;14800;48.174;9.798;2023-03-04T10:29:47;6.30;78.30
27314;DHT22;14800;48.174;9.798;2023-03-04T10:32:16;6.40;78.30
27314;DHT22;14800;48.174;9.798;2023-03-04T10:34:42;6.40;78.10
27314;DHT22;14800;48.174;9.798;2023-03-04T10:37:08;6.50;78.00
27314;DHT22;14800;48.174;9.798;2023-03-04T10:39:42;6.60;77.90
27314;DHT22;14800;48.174;9.798;2023-03-04T10:44:53;6.70;77.70
27314;DHT22;14800;48.174;9.798;2023-03-04T10:47:30;6.80;77.60
27314;DHT22;14800;48.174;9.798;2023-03-04T10:49:59;6.80;77.40
27314;DHT22;14800;48.174;9.798;2023-03-04T10:52:30;6.90;77.20
27314;DHT22;14800;48.174;9.798;2023-03-04T10:55:21;6.90;76.60
27314;DHT22;14800;48.174;9.798;2023-03-04T10:57:54;7.00;75.80
27314;DHT22;14800;48.174;9.798;2023-03-04T11:05:45;7.20;75.80
27314;DHT22;14800;48.174;9.798;2023-03-04T11:08:18;7.20;76.40
27314;DHT22;14800;48.174;9.798;2023-03-04T11:10:44;7.30;75.60
27314;DHT22;14800;48.174;9.798;2023-03-04T11:18:22;7.50;74.70
27314;DHT22;14800;48.174;9.798;2023-03-04T11:20:51;7.60;75.10
27314;DHT22;14800;48.174;9.798;2023-03-04T11:23:31;7.60;74.90
27314;DHT22;14800;48.174;9.798;2023-03-04T11:26:05;7.70;74.20
27314;DHT22;14800;48.174;9.798;2023-03-04T11:28:46;7.80;74.50
27314;DHT22;14800;48.174;9.798;2023-03-04T11:31:20;7.90;73.70
27314;DHT22;14800;48.174;9.798;2023-03-04T11:34:07;8.00;73.70
27314;DHT22;14800;48.174;9.798;2023-03-04T11:36:56;8.00;73.10
27314;DHT22;14800;48.174;9.798;2023-03-04T11:39:38;8.10;72.70
27314;DHT22;14800;48.174;9.798;2023-03-04T11:44:38;8.20;73.00
27314;DHT22;14800;48.174;9.798;2023-03-04T12:02:19;8.50;71.40
27314;DHT22;14800;48.174;9.798;2023-03-04T12:13:21;8.70;68.50
27314;DHT22;14800;48.174;9.798;2023-03-04T12:19:21;8.80;64.40
27314;DHT22;14800;48.174;9.798;2023-03-04T12:29:51;9.00;63.80
27314;DHT22;14800;48.174;9.798;2023-03-04T12:35:12;9.00;62.90
27314;DHT22;14800;48.174;9.798;2023-03-04T12:37:52;9.10;63.80
27314;DHT22;14800;48.174;9.798;2023-03-04T12:40:46;9.10;64.20
27314;DHT22;14800;48.174;9.798;2023-03-04T12:54:40;9.10;61.20
27314;DHT22;14800;48.174;9.798;2023-03-04T13:00:14;9.10;60.60
27314;DHT22;14800;48.174;9.798;2023-03-04T13:03:10;9.10;59.00
27314;DHT22;14800;48.174;9.798;2023-03-04T13:10:45;9.10;59.60
27314;DHT22;14800;48.174;9.798;2023-03-04T13:13:40;9.00;59.10
27314;DHT22;14800;48.174;9.798;2023-03-04T13:16:27;9.10;58.00
27314;DHT22;14800;48.174;9.798;2023-03-04T13:18:53;9.00;55.40
27314;DHT22;14800;48.174;9.798;2023-03-04T13:21:23;9.00;57.80
27314;DHT22;14800;48.174;9.798;2023-03-04T13:23:50;8.90;58.40
27314;DHT22;14800;48.174;9.798;2023-03-04T13:28:52;8.90;57.00
27314;DHT22;14800;48.174;9.798;2023-03-04T13:31:24;8.90;57.10
27314;DHT22;14800;48.174;9.798;2023-03-04T13:33:54;8.90;57.50
27314;DHT22;14800;48.174;9.798;2023-03-04T13:36:50;8.90;58.40
27314;DHT22;14800;48.174;9.798;2023-03-04T13:47:13;8.90;56.40
27314;DHT22;14800;48.174;9.798;2023-03-04T13:49:39;8.80;57.10
27314;DHT22;14800;48.174;9.798;2023-03-04T13:55:31;8.80;58.10
27314;DHT22;14800;48.174;9.798;2023-03-04T13:57:58;8.80;58.70
27314;DHT22;14800;48.174;9.798;2023-03-04T14:00:24;8.80;59.80
27314;DHT22;14800;48.174;9.798;2023-03-04T14:02:51;8.80;59.50
27314;DHT22;14800;48.174;9.798;2023-03-04T14:05:17;8.80;59.90
27314;DHT22;14800;48.174;9.798;2023-03-04T14:07:42;8.80;61.30
27314;DHT22;14800;48.174;9.798;2023-03-04T14:12:42;8.80;59.90
27314;DHT22;14800;48.174;9.798;2023-03-04T14:17:37;8.70;58.60
27314;DHT22;14800;48.174;9.798;2023-03-04T14:20:16;8.60;58.50
27314;DHT22;14800;48.174;9.798;2023-03-04T14:22:45;8.50;58.30
27314;DHT22;14800;48.174;9.798;2023-03-04T14:27:46;8.40;58.60
27314;DHT22;14800;48.174;9.798;2023-03-04T14:32:45;8.30;59.60
27314;DHT22;14800;48.174;9.798;2023-03-04T14:40:27;8.20;60.70
27314;DHT22;14800;48.174;9.798;2023-03-04T14:42:57;8.10;61.30
27314;DHT22;14800;48.174;9.798;2023-03-04T14:45:26;8.10;61.30
27314;DHT22;14800;48.174;9.798;2023-03-04T14:47:53;8.10;61.60
27314;DHT22;14800;48.174;9.798;2023-03-04T14:50:21;8.10;62.20
27314;DHT22;14800;48.174;9.798;2023-03-04T14:52:48;8.10;62.00
27314;DHT22;14800;48.174;9.798;2023-03-04T14:57:46;8.10;62.30
27314;DHT22;14800;48.174;9.798;2023-03-04T15:00:28;8.00;61.80
27314;DHT22;14800;48.174;9.798;2023-03-04T15:02:57;7.90;61.60
27314;DHT22;14800;48.174;9.798;2023-03-04T15:05:29;7.90;62.60
27314;DHT22;14800;48.174;9.798;2023-03-04T15:08:04;7.90;62.40
27314;DHT22;14800;48.174;9.798;2023-03-04T15:10:33;7.90;62.70
27314;DHT22;14800;48.174;9.798;2023-03-04T15:13:05;7.80;62.90
27314;DHT22;14800;48.174;9.798;2023-03-04T15:20:39;7.70;62.70
27314;DHT22;14800;48.174;9.798;2023-03-04T15:23:05;7.60;62.20
27314;DHT22;14800;48.174;9.798;2023-03-04T15:25:39;7.60;62.90
27314;DHT22;14800;48.174;9.798;2023-03-04T15:28:08;7.50;63.10
27314;DHT22;14800;48.174;9.798;2023-03-04T15:30:35;7.50;63.00
27314;DHT22;14800;48.174;9.798;2023-03-04T15:33:01;7.40;63.00
27314;DHT22;14800;48.174;9.798;2023-03-04T15:35:29;7.40;63.50
27314;DHT22;14800;48.174;9.798;2023-03-04T15:37:56;7.40;63.40
27314;DHT22;14800;48.174;9.798;2023-03-04T15:40:29;7.40;63.60
27314;DHT22;14800;48.174;9.798;2023-03-04T15:42:56;7.30;63.40
27314;DHT22;14800;48.174;9.798;2023-03-04T15:47:50;7.30;63.30
27314;DHT22;14800;48.174;9.798;2023-03-04T15:50:16;7.30;63.60
27314;DHT22;14800;48.174;9.798;2023-03-04T15:52:42;7.20;63.30
27314;DHT22;14800;48.174;9.798;2023-03-04T15:55:20;7.20;63.60
27314;DHT22;14800;48.174;9.798;2023-03-04T15:57:48;7.20;63.60
27314;DHT22;14800;48.174;9.798;2023-03-04T16:00:17;7.10;63.60
27314;DHT22;14800;48.174;9.798;2023-03-04T16:02:42;7.10;63.70
27314;DHT22;14800;48.174;9.798;2023-03-04T16:05:09;7.00;63.60
27314;DHT22;14800;48.174;9.798;2023-03-04T16:07:36;7.00;63.60
27314;DHT22;14800;48.174;9.798;2023-03-04T16:12:41;6.90;63.20
27314;DHT22;14800;48.174;9.798;2023-03-04T16:15:16;6.80;63.00
27314;DHT22;14800;48.174;9.798;2023-03-04T16:17:43;6.80;63.50
27314;DHT22;14800;48.174;9.798;2023-03-04T16:20:13;6.70;63.60
27314;DHT22;14800;48.174;9.798;2023-03-04T16:22:41;6.60;63.70
27314;DHT22;14800;48.174;9.798;2023-03-04T16:25:14;6.60;63.70
27314;DHT22;14800;48.174;9.798;2023-03-04T16:27:40;6.40;63.30
27314;DHT22;14800;48.174;9.798;2023-03-04T16:30:16;6.30;64.00
27314;DHT22;14800;48.174;9.798;2023-03-04T16:32:42;6.30;64.40
27314;DHT22;14800;48.174;9.798;2023-03-04T16:35:08;6.20;64.80
27314;DHT22;14800;48.174;9.798;2023-03-04T16:37:34;6.20;65.00
27314;DHT22;14800;48.174;9.798;2023-03-04T16:39:59;6.10;65.00
27314;DHT22;14800;48.174;9.798;2023-03-04T16:42:25;6.10;64.70
27314;DHT22;14800;48.174;9.798;2023-03-04T16:44:52;6.00;64.70
27314;DHT22;14800;48.174;9.798;2023-03-04T16:47:17;6.00;64.70
27314;DHT22;14800;48.174;9.798;2023-03-04T16:49:43;5.90;64.80
27314;DHT22;14800;48.174;9.798;2023-03-04T16:52:22;5.90;65.80
27314;DHT22;14800;48.174;9.798;2023-03-04T16:54:49;5.80;64.80
27314;DHT22;14800;48.174;9.798;2023-03-04T16:57:15;5.70;64.70
27314;DHT22;14800;48.174;9.798;2023-03-04T16:59:40;5.60;64.90
27314;DHT22;14800;48.174;9.798;2023-03-04T17:02:13;5.60;65.10
27314;DHT22;14800;48.174;9.798;2023-03-04T17:04:39;5.50;65.10
27314;DHT22;14800;48.174;9.798;2023-03-04T17:07:04;5.40;65.30
27314;DHT22;14800;48.174;9.798;2023-03-04T17:09:30;5.30;65.20
27314;DHT22;14800;48.174;9.798;2023-03-04T17:11:55;5.20;65.30
27314;DHT22;14800;48.174;9.798;2023-03-04T17:14:22;5.10;65.50
27314;DHT22;14800;48.174;9.798;2023-03-04T17:16:47;5.00;65.80
27314;DHT22;14800;48.174;9.798;2023-03-04T17:19:13;5.00;66.00
27314;DHT22;14800;48.174;9.798;2023-03-04T17:21:39;4.90;66.00
27314;DHT22;14800;48.174;9.798;2023-03-04T17:24:05;4.90;66.30
27314;DHT22;14800;48.174;9.798;2023-03-04T17:26:33;4.90;66.40
27314;DHT22;14800;48.174;9.798;2023-03-04T17:28:59;4.80;66.30
27314;DHT22;14800;48.174;9.798;2023-03-04T17:31:24;4.70;66.50
27314;DHT22;14800;48.174;9.798;2023-03-04T17:33:50;4.70;66.60
27314;DHT22;14800;48.174;9.798;2023-03-04T17:36:17;4.50;66.60
27314;DHT22;14800;48.174;9.798;2023-03-04T17:38:43;4.40;66.80
27314;DHT22;14800;48.174;9.798;2023-03-04T17:41:12;4.40;67.00
27314;DHT22;14800;48.174;9.798;2023-03-04T17:43:49;4.20;67.10
27314;DHT22;14800;48.174;9.798;2023-03-04T17:46:17;4.10;67.30
27314;DHT22;14800;48.174;9.798;2023-03-04T17:48:44;4.00;67.50
27314;DHT22;14800;48.174;9.798;2023-03-04T17:51:10;4.00;67.70
27314;DHT22;14800;48.174;9.798;2023-03-04T17:53:36;3.90;67.90
27314;DHT22;14800;48.174;9.798;2023-03-04T17:56:03;3.90;68.20
27314;DHT22;14800;48.174;9.798;2023-03-04T17:58:31;3.80;68.30
27314;DHT22;14800;48.174;9.798;2023-03-04T18:01:02;3.80;68.40